Time;durP1;ratioP1;P1;durP2;ratioP2;P2;SDS_P1;SDS_P2;PMS_P1;PMS_P2;Temp;Humidity;BMP_temperature;BMP_pressure;BME280_temperature;BME280_humidity;BME280_pressure;Samples;Min_cycle;Max_cycle;Signal;HPM_P1;HPM_P2
2023/07/27 00:00:45;;;;;;;1.00;1.00;;;;;;;25.51;54.06;97430.38;5085513;28;20646;-27
2023/07/27 00:03:12;;;;;;;0.97;0.97;;;;;;;25.56;54.17;97430.44;5083830;28;20206;-28
2023/07/27 00:05:39;;;;;;;1.00;1.00;;;;;;;25.54;54.01;97425.28;5080771;28;20649;-27
2023/07/27 00:08:06;;;;;;;0.98;0.98;;;;;;;25.56;54.21;97415.00;5072051;28;20287;-27
2023/07/27 00:10:32;;;;;;;0.90;0.90;;;;;;;25.55;54.15;97419.25;5081191;28;20211;-27
2023/07/27 00:12:59;;;;;;;0.90;0.90;;;;;;;25.55;53.82;97414.13;5078904;28;20193;-28
2023/07/27 00:15:26;;;;;;;0.90;0.90;;;;;;;25.55;54.14;97413.28;5076263;28;20223;-27
2023/07/27 00:17:52;;;;;;;1.00;1.00;;;;;;;25.54;54.04;97417.56;5064062;28;20291;-29
2023/07/27 00:20:19;;;;;;;1.00;1.00;;;;;;;25.52;54.21;97416.66;5062330;28;20204;-27
2023/07/27 00:22:45;;;;;;;0.90;0.90;;;;;;;25.55;54.04;97423.56;5071111;28;20204;-27
2023/07/27 00:25:12;;;;;;;0.82;0.82;;;;;;;25.55;53.90;97423.56;5068473;28;20739;-42
2023/07/27 00:27:38;;;;;;;0.90;0.90;;;;;;;25.49;53.89;97414.03;5078403;28;20624;-29
2023/07/27 00:30:06;;;;;;;0.90;0.90;;;;;;;25.54;54.21;97426.97;5067115;28;20551;-27
2023/07/27 00:32:33;;;;;;;0.90;0.90;;;;;;;25.53;53.87;97425.25;5073980;28;20204;-27
2023/07/27 00:34:59;;;;;;;0.93;0.93;;;;;;;25.54;53.99;97421.81;5068273;28;20782;-27
2023/07/27 00:37:26;;;;;;;1.07;1.07;;;;;;;25.54;53.92;97425.28;5070863;28;20309;-27
2023/07/27 00:39:52;;;;;;;0.90;0.90;;;;;;;25.56;54.19;97425.28;5074656;28;20208;-27
2023/07/27 00:42:19;;;;;;;0.82;0.82;;;;;;;25.56;54.26;97423.59;5086563;28;20257;-27
2023/07/27 00:44:46;;;;;;;0.90;0.90;;;;;;;25.54;54.28;97417.56;5071493;28;20200;-27
2023/07/27 00:47:12;;;;;;;0.93;0.90;;;;;;;25.52;53.90;97410.66;5078595;28;20227;-27
2023/07/27 00:49:39;;;;;;;1.00;1.00;;;;;;;25.55;53.99;97414.13;5083724;28;20204;-27
2023/07/27 00:52:07;;;;;;;0.97;0.93;;;;;;;25.54;54.20;97406.38;5072589;28;20204;-27
2023/07/27 00:54:34;;;;;;;0.90;0.90;;;;;;;25.56;54.04;97409.84;5069245;28;20245;-27
2023/07/27 00:57:01;;;;;;;0.90;0.90;;;;;;;25.55;54.24;97398.69;5079545;28;20653;-27
2023/07/27 00:59:28;;;;;;;0.90;0.90;;;;;;;25.53;53.91;97395.25;5079543;28;20207;-27
2023/07/27 01:01:54;;;;;;;0.90;0.90;;;;;;;25.56;53.99;97407.28;5073213;28;20662;-27
2023/07/27 01:04:21;;;;;;;0.80;0.80;;;;;;;25.55;54.32;97401.25;5074615;28;20290;-27
2023/07/27 01:06:47;;;;;;;1.13;1.03;;;;;;;25.55;54.27;97405.56;5074159;28;20219;-27
2023/07/27 01:09:14;;;;;;;1.00;1.00;;;;;;;25.54;54.14;97399.53;5078742;28;20253;-27
2023/07/27 01:12:10;;;;;;;1.17;1.10;;;;;;;25.54;54.17;97396.97;5080338;28;20201;-28
2023/07/27 01:15:04;;;;;;;0.90;0.90;;;;;;;25.53;54.24;97390.09;5063497;28;20208;-28
2023/07/27 01:17:46;;;;;;;1.00;1.00;;;;;;;25.53;53.90;97381.50;5081085;28;20246;-27
2023/07/27 01:20:15;;;;;;;0.80;0.80;;;;;;;25.51;54.29;97386.63;5069514;28;20205;-27
2023/07/27 01:22:45;;;;;;;0.90;0.90;;;;;;;25.50;54.43;97382.34;5073628;28;20253;-27
2023/07/27 01:25:51;;;;;;;1.00;1.00;;;;;;;25.50;54.04;97387.50;5076338;28;20200;-27
2023/07/27 01:28:26;;;;;;;0.93;0.93;;;;;;;25.49;54.32;97380.59;5072860;28;20196;-27
2023/07/27 01:31:08;;;;;;;0.90;0.90;;;;;;;25.49;54.32;97377.19;5080146;28;20195;-27
2023/07/27 01:33:37;;;;;;;0.90;0.90;;;;;;;25.43;54.50;97367.66;5064301;28;20201;-27
2023/07/27 01:36:08;;;;;;;0.80;0.80;;;;;;;25.47;54.28;97382.31;5055971;28;20636;-27
2023/07/27 01:38:36;;;;;;;0.80;0.80;;;;;;;25.49;54.53;97372.03;5078152;28;20319;-27
2023/07/27 01:41:02;;;;;;;1.00;1.00;;;;;;;25.47;54.29;97373.72;5046492;28;20208;-28
2023/07/27 01:43:29;;;;;;;0.90;0.90;;;;;;;25.47;54.53;97372.00;5073202;28;20209;-28
2023/07/27 01:45:55;;;;;;;0.80;0.80;;;;;;;25.48;54.12;97384.03;5052345;28;20225;-28
2023/07/27 01:48:23;;;;;;;1.00;1.00;;;;;;;25.47;54.10;97373.72;5078445;28;20785;-27
2023/07/27 01:50:50;;;;;;;1.10;1.00;;;;;;;25.47;54.15;97371.13;5069705;28;20203;-27
2023/07/27 01:53:17;;;;;;;0.90;0.90;;;;;;;25.48;54.44;97373.72;5085428;28;20197;-27
2023/07/27 01:55:43;;;;;;;0.70;0.70;;;;;;;25.46;54.66;97369.44;5067595;28;20272;-27
2023/07/27 01:58:10;;;;;;;0.90;0.90;;;;;;;25.49;54.41;97374.59;5077278;28;20219;-27
2023/07/27 02:00:37;;;;;;;0.73;0.73;;;;;;;25.45;54.21;97368.56;5057714;28;20200;-27
2023/07/27 02:03:03;;;;;;;0.90;0.90;;;;;;;25.49;54.60;97374.59;5077081;28;20196;-27
2023/07/27 02:05:30;;;;;;;0.90;0.90;;;;;;;25.49;54.29;97370.31;5081016;28;20220;-27
2023/07/27 02:07:57;;;;;;;1.00;1.00;;;;;;;25.49;54.11;97372.03;5082723;28;20196;-27
2023/07/27 02:10:23;;;;;;;0.80;0.80;;;;;;;25.49;54.34;97375.44;5074658;28;20239;-27
2023/07/27 02:13:11;;;;;;;0.90;0.90;;;;;;;25.48;54.14;97370.28;5057703;28;20269;-27
2023/07/27 02:15:41;;;;;;;0.77;0.77;;;;;;;25.45;54.40;97353.13;5081182;28;20220;-27
2023/07/27 02:18:15;;;;;;;0.90;0.90;;;;;;;25.50;54.33;97360.88;5054936;28;20235;-27
2023/07/27 02:20:42;;;;;;;0.80;0.80;;;;;;;25.51;54.48;97362.59;5073930;28;20207;-27
2023/07/27 02:23:10;;;;;;;0.70;0.70;;;;;;;25.48;54.26;97358.28;5069194;28;20202;-27
2023/07/27 02:25:36;;;;;;;0.90;0.90;;;;;;;25.50;54.26;97363.47;5054723;28;20216;-28
2023/07/27 02:28:03;;;;;;;0.90;0.90;;;;;;;25.50;54.21;97361.75;5071803;28;20345;-32
2023/07/27 02:30:30;;;;;;;0.80;0.80;;;;;;;25.49;54.24;97356.59;5085866;28;20203;-27
2023/07/27 02:32:56;;;;;;;0.80;0.80;;;;;;;25.50;54.21;97359.19;5072334;28;20196;-28
2023/07/27 02:35:23;;;;;;;0.80;0.80;;;;;;;25.50;54.17;97361.75;5078430;28;20227;-27
2023/07/27 02:37:49;;;;;;;0.90;0.90;;;;;;;25.50;54.50;97360.88;5075560;28;20212;-27
2023/07/27 02:40:16;;;;;;;0.80;0.80;;;;;;;25.50;54.27;97355.72;5073819;28;20196;-34
2023/07/27 02:42:43;;;;;;;0.97;0.97;;;;;;;25.50;54.62;97359.19;5082927;28;20286;-27
2023/07/27 02:45:11;;;;;;;0.90;0.90;;;;;;;25.50;54.47;97356.59;5074150;28;20647;-27
2023/07/27 02:47:37;;;;;;;0.80;0.80;;;;;;;25.51;54.68;97367.75;5077166;28;20265;-28
2023/07/27 02:50:04;;;;;;;0.90;0.90;;;;;;;25.51;54.58;97365.16;5077111;28;20199;-27
2023/07/27 02:52:31;;;;;;;0.80;0.80;;;;;;;25.49;54.59;97354.84;5080732;28;20694;-29
2023/07/27 02:54:58;;;;;;;0.97;0.97;;;;;;;25.50;54.57;97359.19;5084555;28;20248;-27
2023/07/27 02:57:24;;;;;;;1.00;1.00;;;;;;;25.51;54.19;97370.31;5085113;28;20249;-27
2023/07/27 02:59:51;;;;;;;0.90;0.90;;;;;;;25.50;54.20;97363.47;5073641;28;20286;-27
2023/07/27 03:02:17;;;;;;;0.80;0.80;;;;;;;25.50;54.63;97353.16;5078576;28;20626;-27
2023/07/27 03:04:44;;;;;;;1.00;1.00;;;;;;;25.50;54.33;97353.16;5081367;28;20287;-27
2023/07/27 03:07:11;;;;;;;0.73;0.73;;;;;;;25.47;54.74;97346.28;5071362;28;20269;-27
2023/07/27 03:09:38;;;;;;;0.97;0.97;;;;;;;25.50;54.28;97353.16;5071430;28;20192;-27
2023/07/27 03:12:05;;;;;;;0.80;0.80;;;;;;;25.49;54.28;97348.88;5078741;28;20685;-28
2023/07/27 03:14:32;;;;;;;0.90;0.90;;;;;;;25.50;54.25;97360.88;5076356;28;20283;-28
2023/07/27 03:16:58;;;;;;;0.80;0.80;;;;;;;25.46;54.28;97341.13;5063496;28;20651;-27
2023/07/27 03:19:26;;;;;;;0.90;0.90;;;;;;;25.45;54.68;97341.94;5074033;28;20222;-27
2023/07/27 03:21:53;;;;;;;0.80;0.80;;;;;;;25.49;54.66;97346.31;5073935;28;20196;-27
2023/07/27 03:24:19;;;;;;;0.90;0.90;;;;;;;25.48;54.66;97348.00;5074202;28;20203;-27
2023/07/27 03:26:46;;;;;;;0.80;0.80;;;;;;;25.48;54.45;97349.69;5088102;28;20307;-27
2023/07/27 03:29:12;;;;;;;0.83;0.83;;;;;;;25.48;54.22;97352.28;5079036;28;20218;-30
2023/07/27 03:31:39;;;;;;;0.80;0.80;;;;;;;25.46;54.67;97346.25;5065813;28;20247;-27
2023/07/27 03:34:06;;;;;;;0.80;0.80;;;;;;;25.45;54.41;97344.50;5077512;28;20204;-27
2023/07/27 03:36:32;;;;;;;0.70;0.70;;;;;;;25.49;54.37;97354.84;5082456;28;20220;-28
2023/07/27 03:38:59;;;;;;;0.80;0.80;;;;;;;25.49;54.43;97354.84;5072909;28;20219;-27
2023/07/27 03:41:26;;;;;;;0.90;0.90;;;;;;;25.49;54.22;97352.28;5076972;28;20196;-27
2023/07/27 03:43:53;;;;;;;0.87;0.87;;;;;;;25.50;54.37;97358.31;5075120;28;20257;-27
2023/07/27 03:46:19;;;;;;;0.90;0.90;;;;;;;25.49;54.75;97351.44;5074086;28;20225;-28
2023/07/27 03:48:47;;;;;;;0.80;0.80;;;;;;;25.48;54.45;97349.69;5070534;28;20250;-27
2023/07/27 03:51:13;;;;;;;0.90;0.90;;;;;;;25.48;54.52;97358.28;5078374;28;20204;-31
2023/07/27 03:53:40;;;;;;;0.80;0.80;;;;;;;25.47;54.25;97350.56;5080438;28;20659;-27
2023/07/27 03:56:07;;;;;;;0.80;0.80;;;;;;;25.45;54.54;97349.66;5072015;28;20227;-27
2023/07/27 03:58:34;;;;;;;0.90;0.90;;;;;;;25.44;54.76;97338.53;5076907;28;20573;-27
2023/07/27 04:01:00;;;;;;;0.70;0.70;;;;;;;25.44;54.30;97337.66;5073036;28;20238;-27
2023/07/27 04:03:27;;;;;;;0.80;0.80;;;;;;;25.46;54.51;97346.25;5071622;28;20207;-27
2023/07/27 04:05:53;;;;;;;0.80;0.80;;;;;;;25.44;54.68;97333.38;5080456;28;20227;-28
2023/07/27 04:08:20;;;;;;;0.70;0.70;;;;;;;25.45;54.78;97336.81;5075390;28;20199;-28
2023/07/27 04:10:47;;;;;;;0.90;0.90;;;;;;;25.45;54.67;97329.06;5065266;28;20197;-27
2023/07/27 04:13:14;;;;;;;0.80;0.80;;;;;;;25.44;54.42;97325.66;5070860;28;20250;-28
2023/07/27 04:15:40;;;;;;;0.90;0.90;;;;;;;25.45;54.64;97329.94;5077008;28;20639;-31
2023/07/27 04:18:07;;;;;;;0.80;0.80;;;;;;;25.45;54.94;97329.06;5072066;28;20197;-28
2023/07/27 04:20:34;;;;;;;0.80;0.80;;;;;;;25.45;54.84;97332.53;5071700;28;20692;-27
2023/07/27 04:23:00;;;;;;;1.00;1.00;;;;;;;25.46;54.63;97325.69;5074611;28;20200;-27
2023/07/27 04:25:27;;;;;;;0.80;0.80;;;;;;;25.46;54.40;97330.81;5082529;28;20227;-27
2023/07/27 04:27:54;;;;;;;0.80;0.80;;;;;;;25.46;54.71;97329.09;5080574;28;20249;-28
2023/07/27 04:30:20;;;;;;;0.73;0.73;;;;;;;25.46;54.35;97333.41;5071846;28;20628;-27
2023/07/27 04:32:47;;;;;;;0.70;0.70;;;;;;;25.45;54.85;97329.94;5081034;28;20192;-27
2023/07/27 04:35:14;;;;;;;0.70;0.70;;;;;;;25.46;54.62;97331.66;5078325;28;20689;-27
2023/07/27 04:37:40;;;;;;;0.70;0.70;;;;;;;25.46;54.60;97326.53;5074806;28;20196;-28
2023/07/27 04:40:07;;;;;;;0.73;0.73;;;;;;;25.47;54.42;97327.41;5079561;28;20220;-27
2023/07/27 04:42:34;;;;;;;0.70;0.70;;;;;;;25.46;54.75;97321.38;5070172;28;20250;-27
2023/07/27 04:45:00;;;;;;;0.80;0.80;;;;;;;25.45;54.71;97323.94;5071988;28;20204;-27
2023/07/27 04:47:27;;;;;;;0.80;0.80;;;;;;;25.48;54.67;97322.25;5080168;28;20203;-27
2023/07/27 04:49:53;;;;;;;0.80;0.80;;;;;;;25.48;54.73;97321.38;5087834;28;20246;-27
2023/07/27 04:52:20;;;;;;;0.70;0.70;;;;;;;25.45;54.79;97317.09;5077692;28;20228;-27
2023/07/27 04:54:46;;;;;;;0.90;0.90;;;;;;;25.47;54.47;97323.13;5078385;28;20250;-28
2023/07/27 04:57:13;;;;;;;0.70;0.70;;;;;;;25.44;54.46;97311.94;5083547;28;20227;-27
2023/07/27 04:59:40;;;;;;;0.80;0.80;;;;;;;25.47;54.71;97320.56;5075126;28;20227;-27
2023/07/27 05:02:06;;;;;;;0.80;0.80;;;;;;;25.48;54.93;97314.53;5075787;28;20200;-27
2023/07/27 05:04:33;;;;;;;0.80;0.80;;;;;;;25.48;54.65;97311.97;5073035;28;20208;-27
2023/07/27 05:07:00;;;;;;;0.70;0.70;;;;;;;25.49;54.40;97318.00;5084713;28;20220;-27
2023/07/27 05:09:26;;;;;;;0.77;0.77;;;;;;;25.48;54.75;97319.69;5065231;28;20691;-27
2023/07/27 05:11:53;;;;;;;0.70;0.70;;;;;;;25.49;54.56;97320.56;5078093;28;20215;-31
2023/07/27 05:14:19;;;;;;;0.80;0.80;;;;;;;25.48;54.53;97322.25;5078581;28;20292;-27
2023/07/27 05:16:46;;;;;;;0.77;0.77;;;;;;;25.48;54.79;97311.97;5074333;28;20273;-27
2023/07/27 05:19:13;;;;;;;0.80;0.80;;;;;;;25.49;54.87;97320.56;5083468;28;20223;-27
2023/07/27 05:21:39;;;;;;;0.70;0.70;;;;;;;25.49;54.83;97318.00;5079528;28;20206;-27
2023/07/27 05:24:06;;;;;;;0.80;0.80;;;;;;;25.47;54.54;97315.41;5087602;28;20680;-27
2023/07/27 05:26:32;;;;;;;0.70;0.70;;;;;;;25.48;54.55;97318.81;5077956;28;20235;-27
2023/07/27 05:29:00;;;;;;;0.80;0.80;;;;;;;25.48;54.83;97319.69;5086291;28;20561;-27
2023/07/27 05:31:26;;;;;;;0.80;0.80;;;;;;;25.48;54.50;97311.97;5081130;28;20195;-27
2023/07/27 05:33:53;;;;;;;0.80;0.80;;;;;;;25.49;54.34;97300.81;5090272;28;20245;-27
2023/07/27 05:36:20;;;;;;;0.73;0.73;;;;;;;25.47;54.71;97296.53;5082684;28;20227;-33
2023/07/27 05:38:46;;;;;;;0.60;0.60;;;;;;;25.50;54.75;97304.28;5088848;28;20264;-27
2023/07/27 05:41:13;;;;;;;0.70;0.70;;;;;;;25.50;54.82;97301.69;5083061;28;20200;-27
2023/07/27 05:43:39;;;;;;;0.63;0.63;;;;;;;25.49;54.38;97293.09;5074749;28;20204;-27
2023/07/27 05:46:06;;;;;;;1.10;1.00;;;;;;;25.50;54.45;97304.28;5086292;28;20228;-27
2023/07/27 05:48:34;;;;;;;0.70;0.70;;;;;;;25.48;54.79;97293.09;5081585;28;20214;-27
2023/07/27 05:51:00;;;;;;;0.70;0.70;;;;;;;25.50;54.48;97299.13;5086890;28;20203;-29
2023/07/27 05:53:27;;;;;;;0.60;0.60;;;;;;;25.49;54.71;97295.69;5073562;28;20230;-28
2023/07/27 05:55:54;;;;;;;0.80;0.80;;;;;;;25.45;54.81;97291.34;5077849;28;20609;-27
2023/07/27 05:58:20;;;;;;;0.70;0.70;;;;;;;25.51;54.47;97300.84;5074659;28;20201;-27
2023/07/27 06:00:59;;;;;;;0.67;0.67;;;;;;;25.50;54.45;97301.69;5080008;28;20202;-27
2023/07/27 06:03:27;;;;;;;0.80;0.80;;;;;;;25.50;54.52;97307.72;5082819;28;20203;-27
2023/07/27 06:05:54;;;;;;;0.77;0.77;;;;;;;25.51;54.81;97305.97;5074006;28;20317;-27
2023/07/27 06:08:20;;;;;;;0.70;0.70;;;;;;;25.51;54.50;97305.97;5079744;28;20219;-27
2023/07/27 06:10:48;;;;;;;0.70;0.70;;;;;;;25.50;54.81;97307.72;5079891;28;20195;-27
2023/07/27 06:13:14;;;;;;;0.83;0.83;;;;;;;25.51;54.33;97300.84;5077413;28;20196;-27
2023/07/27 06:15:47;;;;;;;0.75;0.75;;;;;;;25.51;54.42;97305.97;5066704;28;20227;-27
2023/07/27 06:18:14;;;;;;;0.70;0.70;;;;;;;25.51;54.81;97293.13;5068292;28;20262;-28
2023/07/27 06:20:41;;;;;;;0.70;0.70;;;;;;;25.51;54.40;97299.13;5068130;28;20217;-27
2023/07/27 06:23:08;;;;;;;0.80;0.80;;;;;;;25.50;54.62;97294.84;5079422;28;20204;-27
2023/07/27 06:25:34;;;;;;;0.70;0.70;;;;;;;25.49;54.75;97290.53;5079518;28;20217;-27
2023/07/27 06:28:01;;;;;;;0.70;0.70;;;;;;;25.46;54.55;97285.34;5086328;28;20232;-27
2023/07/27 06:30:27;;;;;;;0.80;0.80;;;;;;;25.48;54.77;97291.38;5080516;28;20245;-27
2023/07/27 06:32:54;;;;;;;0.70;0.70;;;;;;;25.48;54.69;97287.94;5081600;28;20196;-37
2023/07/27 06:35:21;;;;;;;0.70;0.70;;;;;;;25.49;54.73;97289.69;5079112;28;20227;-27
2023/07/27 06:37:47;;;;;;;0.73;0.73;;;;;;;25.48;54.37;97285.38;5084764;28;20254;-27
2023/07/27 06:40:14;;;;;;;0.70;0.70;;;;;;;25.48;54.90;97286.25;5084790;28;20219;-27
2023/07/27 06:42:41;;;;;;;0.70;0.70;;;;;;;25.48;54.60;97278.53;5083313;28;20200;-27
2023/07/27 06:45:07;;;;;;;0.80;0.80;;;;;;;25.48;54.37;97275.94;5086829;28;20261;-27
2023/07/27 06:47:34;;;;;;;0.70;0.70;;;;;;;25.47;54.89;97284.53;5085340;28;20203;-27
2023/07/27 06:50:01;;;;;;;0.80;0.80;;;;;;;25.49;54.50;97276.81;5080602;28;20203;-27
2023/07/27 06:52:27;;;;;;;0.80;0.80;;;;;;;25.47;54.39;97274.22;5079588;28;20260;-28
2023/07/27 06:54:54;;;;;;;0.73;0.73;;;;;;;25.49;54.71;97269.94;5088143;28;20577;-27
2023/07/27 06:57:24;;;;;;;0.60;0.60;;;;;;;25.49;54.63;97267.38;5081157;28;20667;-27
2023/07/27 06:59:50;;;;;;;0.80;0.80;;;;;;;25.49;54.88;97266.53;5071097;28;20333;-27
2023/07/27 07:02:17;;;;;;;0.67;0.67;;;;;;;25.49;54.33;97269.94;5072777;28;20228;-28
2023/07/27 07:04:45;;;;;;;0.80;0.80;;;;;;;25.49;54.68;97262.22;5071285;28;20264;-32
2023/07/27 07:07:11;;;;;;;2.47;0.70;;;;;;;25.50;54.87;97270.81;5076634;28;20225;-27
2023/07/27 07:09:38;;;;;;;0.70;0.70;;;;;;;25.49;54.34;97261.38;5079216;28;20195;-27
2023/07/27 07:12:05;;;;;;;0.80;0.80;;;;;;;25.48;54.36;97267.34;5082995;28;20257;-27
2023/07/27 07:14:32;;;;;;;0.70;0.70;;;;;;;25.50;54.60;97269.13;5079652;28;20254;-27
2023/07/27 07:16:59;;;;;;;0.67;0.67;;;;;;;25.44;54.72;97247.59;5086887;28;20220;-27
2023/07/27 07:19:25;;;;;;;0.70;0.70;;;;;;;25.49;54.41;97259.66;5083595;28;20608;-27
2023/07/27 07:21:52;;;;;;;0.70;0.70;;;;;;;25.50;54.95;97252.81;5088706;28;20624;-27
2023/07/27 07:24:19;;;;;;;0.80;0.80;;;;;;;25.49;54.56;97248.50;5081084;28;20204;-27
2023/07/27 07:26:46;;;;;;;0.80;0.80;;;;;;;25.46;54.84;97238.19;5080242;28;20644;-27
2023/07/27 07:29:12;;;;;;;0.80;0.80;;;;;;;25.50;54.47;97242.50;5073736;28;20203;-27
2023/07/27 07:31:39;;;;;;;0.70;0.70;;;;;;;25.50;54.76;97247.66;5075082;28;20210;-27
2023/07/27 07:34:06;;;;;;;0.70;0.70;;;;;;;25.48;54.60;97232.19;5080694;28;20670;-27
2023/07/27 07:36:32;;;;;;;0.77;0.77;;;;;;;25.48;54.55;97226.19;5077256;28;20650;-27
2023/07/27 07:38:59;;;;;;;0.80;0.80;;;;;;;25.50;54.52;97239.94;5073598;28;20200;-27
2023/07/27 07:41:26;;;;;;;0.73;0.73;;;;;;;25.50;54.40;97227.94;5077911;28;20207;-27
2023/07/27 07:43:52;;;;;;;0.80;0.80;;;;;;;25.50;54.68;97227.94;5072395;28;20197;-27
2023/07/27 07:46:19;;;;;;;0.70;0.70;;;;;;;25.49;54.85;97241.63;5075475;28;20231;-27
2023/07/27 07:48:48;;;;;;;0.60;0.60;;;;;;;25.50;54.68;97235.66;5077250;28;20663;-27
2023/07/27 07:51:15;;;;;;;0.70;0.70;;;;;;;25.49;54.45;97233.06;5074637;28;20199;-27
2023/07/27 07:53:41;;;;;;;2.07;0.70;;;;;;;25.49;54.66;97231.34;5072313;28;20200;-27
2023/07/27 07:56:15;;;;;;;0.70;0.70;;;;;;;25.51;54.84;97231.34;5084736;28;20223;-33
2023/07/27 07:58:42;;;;;;;0.70;0.70;;;;;;;25.50;54.80;97229.66;5078077;28;20519;-27
2023/07/27 08:01:09;;;;;;;0.63;0.63;;;;;;;25.51;54.52;97226.22;5074087;28;20216;-27
2023/07/27 08:03:35;;;;;;;0.60;0.60;;;;;;;25.51;54.71;97232.22;5065665;28;20204;-27
2023/07/27 08:06:02;;;;;;;0.70;0.70;;;;;;;25.50;54.82;97230.53;5085314;28;20215;-27
2023/07/27 08:08:29;;;;;;;0.70;0.70;;;;;;;25.50;54.63;97233.09;5071780;28;20196;-28
2023/07/27 08:11:02;;;;;;;0.60;0.60;;;;;;;25.51;54.40;97233.94;5085228;28;20654;-27
2023/07/27 08:13:30;;;;;;;0.70;0.70;;;;;;;25.51;54.48;97228.78;5069522;28;20197;-27
2023/07/27 08:15:57;;;;;;;0.80;0.80;;;;;;;25.50;54.90;97225.38;5082172;28;20591;-27
2023/07/27 08:18:23;;;;;;;0.70;0.70;;;;;;;25.50;54.72;97227.94;5072187;28;20693;-28
2023/07/27 08:21:00;;;;;;;0.60;0.60;;;;;;;25.49;54.76;97222.78;5077668;28;20211;-27
2023/07/27 08:23:27;;;;;;;0.70;0.70;;;;;;;25.51;54.47;97224.50;5077560;28;20376;-27
2023/07/27 08:25:55;;;;;;;0.70;0.70;;;;;;;25.47;54.58;97220.19;5080650;28;20220;-27
2023/07/27 08:28:22;;;;;;;0.60;0.60;;;;;;;25.51;54.80;97228.78;5070921;28;20200;-31
2023/07/27 08:30:48;;;;;;;0.60;0.60;;;;;;;25.49;54.73;97217.63;5080009;28;20193;-27
2023/07/27 08:33:15;;;;;;;0.70;0.70;;;;;;;25.50;54.39;97221.94;5082095;28;20472;-27
2023/07/27 08:35:42;;;;;;;0.60;0.60;;;;;;;25.50;54.68;97215.06;5085355;28;20641;-30
2023/07/27 08:38:09;;;;;;;0.63;0.63;;;;;;;25.50;54.54;97209.94;5080606;28;20663;-27
2023/07/27 08:40:35;;;;;;;0.70;0.70;;;;;;;25.47;54.59;97198.75;5075504;28;20247;-27
2023/07/27 08:43:03;;;;;;;0.60;0.60;;;;;;;25.51;54.90;97200.47;5080326;28;20200;-27
2023/07/27 08:45:30;;;;;;;0.77;0.77;;;;;;;25.51;54.74;97205.63;5068266;28;20216;-27
2023/07/27 08:47:57;;;;;;;0.67;0.67;;;;;;;25.50;54.76;97201.34;5079047;28;20265;-27
2023/07/27 08:50:24;;;;;;;0.60;0.60;;;;;;;25.51;54.48;97197.91;5055091;28;20683;-27
2023/07/27 08:52:50;;;;;;;0.70;0.70;;;;;;;25.47;54.53;97196.16;5079709;28;20199;-27
2023/07/27 08:55:17;;;;;;;0.60;0.60;;;;;;;25.51;54.63;97203.06;5080048;28;20227;-27
2023/07/27 08:57:43;;;;;;;0.70;0.70;;;;;;;25.52;54.41;97199.66;5078281;28;20393;-27
2023/07/27 09:00:11;;;;;;;0.70;0.70;;;;;;;25.49;54.85;97192.75;5079683;28;20317;-27
2023/07/27 09:02:41;;;;;;;0.80;0.80;;;;;;;25.51;54.51;97196.22;5076711;28;20203;-28
2023/07/27 09:05:12;;;;;;;0.60;0.60;;;;;;;25.52;54.80;97197.06;5079311;28;20287;-28
2023/07/27 09:07:39;;;;;;;0.60;0.60;;;;;;;25.50;54.60;97191.91;5071548;28;20711;-28
2023/07/27 09:10:07;;;;;;;0.70;0.70;;;;;;;25.51;54.57;97191.06;5068088;28;20197;-27
2023/07/27 09:12:34;;;;;;;0.50;0.50;;;;;;;25.52;54.94;97194.50;5065862;28;20257;-28
2023/07/27 09:15:10;;;;;;;0.77;0.77;;;;;;;25.52;54.39;97184.22;5068869;28;20735;-27
2023/07/27 09:17:37;;;;;;;0.65;0.65;;;;;;;25.50;54.78;97176.47;5065435;28;20572;-27
2023/07/27 09:20:04;;;;;;;0.70;0.70;;;;;;;25.49;54.76;97172.16;5069481;28;20720;-27
2023/07/27 09:22:33;;;;;;;0.73;0.73;;;;;;;25.52;54.73;97182.47;5065630;28;20246;-27
2023/07/27 09:25:00;;;;;;;0.70;0.70;;;;;;;25.48;54.57;97165.31;5079887;28;20659;-27
2023/07/27 09:27:26;;;;;;;0.80;0.80;;;;;;;25.52;54.81;97171.34;5061429;28;20209;-27
2023/07/27 09:29:59;;;;;;;0.80;0.80;;;;;;;25.51;54.90;97172.19;5083602;28;20291;-27
2023/07/27 09:32:25;;;;;;;0.60;0.60;;;;;;;25.52;54.87;97173.91;5084029;28;20203;-27
2023/07/27 09:34:56;;;;;;;0.60;0.60;;;;;;;25.52;54.58;97171.34;5053054;28;20663;-27
2023/07/27 09:37:23;;;;;;;0.60;0.60;;;;;;;25.51;54.96;97160.19;5077467;28;20210;-27
2023/07/27 09:39:52;;;;;;;0.70;0.70;;;;;;;25.48;54.69;97155.00;5082919;28;20273;-27
2023/07/27 09:42:19;;;;;;;0.70;0.70;;;;;;;25.52;54.66;97155.91;5054235;28;20205;-27
2023/07/27 09:44:49;;;;;;;0.73;0.73;;;;;;;25.51;54.75;97156.72;5080445;28;20200;-27
2023/07/27 09:47:20;;;;;;;0.70;0.70;;;;;;;25.51;54.57;97143.88;5077417;28;20706;-27
2023/07/27 09:49:50;;;;;;;0.70;0.70;;;;;;;25.50;54.63;97137.00;5074242;28;20196;-27
2023/07/27 09:52:18;;;;;;;0.70;0.70;;;;;;;25.51;54.57;97139.59;5050417;28;20663;-27
2023/07/27 09:54:46;;;;;;;0.70;0.70;;;;;;;25.51;54.87;97137.03;5079081;28;20216;-27
2023/07/27 09:57:13;;;;;;;0.60;0.60;;;;;;;25.52;54.70;97138.72;5078021;28;20628;-27
2023/07/27 09:59:41;;;;;;;0.70;0.70;;;;;;;25.52;54.66;97140.47;5073461;28;20195;-27
2023/07/27 10:02:08;;;;;;;0.60;0.60;;;;;;;25.50;54.60;97119.88;5071453;28;20196;-27
2023/07/27 10:04:35;;;;;;;0.73;0.67;;;;;;;25.52;54.80;97125.03;5079958;28;20196;-27
2023/07/27 10:07:01;;;;;;;0.70;0.70;;;;;;;25.52;54.75;97120.72;5079285;28;20220;-27
2023/07/27 10:09:28;;;;;;;0.67;0.67;;;;;;;25.52;54.97;97115.56;5084200;28;20274;-27
2023/07/27 10:11:56;;;;;;;0.80;0.80;;;;;;;25.52;54.48;97119.88;5072347;28;20197;-27
2023/07/27 10:14:26;;;;;;;0.60;0.60;;;;;;;25.52;54.95;97118.16;5082440;28;20199;-27
2023/07/27 10:17:03;;;;;;;0.67;0.67;;;;;;;25.50;54.62;97109.59;5073838;28;20226;-27
2023/07/27 10:19:40;;;;;;;0.70;0.70;;;;;;;25.53;54.79;97108.72;5081825;28;20281;-27
2023/07/27 10:22:17;;;;;;;0.60;0.60;;;;;;;25.51;54.51;97111.28;5077877;28;20203;-34
2023/07/27 10:24:50;;;;;;;0.70;0.70;;;;;;;25.53;54.98;97111.31;5072208;28;20202;-27
2023/07/27 10:27:18;;;;;;;0.70;0.70;;;;;;;25.52;54.49;97115.56;5073804;28;20223;-27
2023/07/27 10:29:51;;;;;;;0.70;0.70;;;;;;;25.53;54.70;97113.88;5083700;28;20239;-30
2023/07/27 10:32:17;;;;;;;0.60;0.60;;;;;;;25.52;54.62;97107.00;5077074;28;20200;-27
2023/07/27 10:34:50;;;;;;;0.70;0.70;;;;;;;25.53;54.94;97114.75;5076475;28;20195;-27
2023/07/27 10:37:17;;;;;;;0.50;0.50;;;;;;;25.53;54.88;97117.31;5084401;28;20219;-36
2023/07/27 10:39:44;;;;;;;0.50;0.50;;;;;;;25.55;54.46;97112.19;5077671;28;20241;-27
2023/07/27 10:42:18;;;;;;;0.60;0.60;;;;;;;25.54;54.77;97108.75;5082522;28;20205;-34
2023/07/27 10:44:55;;;;;;;0.60;0.60;;;;;;;25.54;54.92;97108.75;5083917;28;20203;-27
2023/07/27 10:47:38;;;;;;;0.60;0.60;;;;;;;25.54;54.70;97103.59;5086781;28;20207;-27
2023/07/27 10:50:05;;;;;;;0.50;0.50;;;;;;;25.55;54.79;97104.47;5083675;28;20196;-27
2023/07/27 10:52:39;;;;;;;0.70;0.70;;;;;;;25.55;54.99;97104.47;5090007;28;20249;-30
2023/07/27 10:55:06;;;;;;;0.70;0.70;;;;;;;25.55;54.61;97096.75;5076539;28;20576;-27
2023/07/27 10:57:33;;;;;;;0.70;0.70;;;;;;;25.53;54.77;97096.72;5081662;28;20275;-29
2023/07/27 11:00:00;;;;;;;0.70;0.70;;;;;;;25.54;54.80;97097.56;5077624;28;20203;-30
2023/07/27 11:02:35;;;;;;;0.60;0.60;;;;;;;25.54;54.57;97092.44;5073058;28;20242;-28
2023/07/27 11:05:05;;;;;;;0.60;0.60;;;;;;;25.54;54.45;97090.72;5081645;28;20200;-27
2023/07/27 11:07:34;;;;;;;0.63;0.63;;;;;;;25.55;54.48;97091.59;5083262;28;20674;-27
2023/07/27 11:10:08;;;;;;;0.70;0.70;;;;;;;25.54;54.54;97090.72;5084406;28;20195;-27
2023/07/27 11:12:49;;;;;;;0.70;0.70;;;;;;;25.50;54.58;97081.28;5080062;28;20199;-27
2023/07/27 11:15:25;;;;;;;0.60;0.60;;;;;;;25.53;54.59;97085.56;5079013;28;20309;-27
2023/07/27 11:17:55;;;;;;;0.60;0.60;;;;;;;25.53;54.49;97080.41;5072373;28;20200;-28
2023/07/27 11:20:23;;;;;;;0.60;0.60;;;;;;;25.53;54.95;97083.88;5073028;28;20224;-27
2023/07/27 11:22:51;;;;;;;0.70;0.70;;;;;;;25.54;54.58;97074.41;5080733;28;20287;-27
2023/07/27 11:25:18;;;;;;;0.70;0.70;;;;;;;25.54;54.85;97074.41;5076911;28;20228;-28
2023/07/27 11:27:48;;;;;;;0.70;0.70;;;;;;;25.53;54.43;97064.97;5059435;28;20199;-27
2023/07/27 11:30:17;;;;;;;0.70;0.70;;;;;;;25.50;54.55;97062.38;5076819;28;20264;-27
2023/07/27 11:33:03;;;;;;;0.70;0.70;;;;;;;25.48;54.68;97056.38;5083474;28;20199;-27
2023/07/27 11:35:30;;;;;;;0.70;0.70;;;;;;;25.52;54.71;97064.09;5075987;28;20224;-31
2023/07/27 11:37:57;;;;;;;0.70;0.70;;;;;;;25.52;54.72;97052.97;5074449;28;20207;-27